createdAt,value
2022-12-31T00:00:17.372Z,96007.59
2022-12-31T00:02:44.768Z,96005.78
2022-12-31T00:05:12.091Z,96013.84
2022-12-31T00:10:06.171Z,96037.53
2022-12-31T00:12:33.434Z,96019.94
2022-12-31T00:15:02.230Z,96021.53
2022-12-31T00:17:30.069Z,96012.84
2022-12-31T00:19:57.559Z,96006.00
2022-12-31T00:22:24.738Z,96012.03
2022-12-31T00:24:52.135Z,96014.47
2022-12-31T00:27:19.435Z,96001.31
2022-12-31T00:29:46.672Z,96012.66
2022-12-31T00:32:15.373Z,96014.06
2022-12-31T00:34:42.516Z,95999.50
2022-12-31T00:37:09.649Z,95992.44
2022-12-31T00:39:36.750Z,96002.53
2022-12-31T00:42:04.316Z,95992.22
2022-12-31T00:44:31.593Z,95990.22
2022-12-31T00:46:58.914Z,95995.03
2022-12-31T00:49:27.809Z,96000.72
2022-12-31T00:51:55.130Z,96009.22
2022-12-31T00:54:22.335Z,95999.50
2022-12-31T00:56:49.550Z,95988.78
2022-12-31T00:59:16.795Z,95984.72
2022-12-31T01:01:44.247Z,95997.50
2022-12-31T01:04:14.049Z,95992.41
2022-12-31T01:06:43.692Z,96007.38
2022-12-31T01:09:12.362Z,96009.81
2022-12-31T01:11:39.771Z,96018.53
2022-12-31T01:14:09.391Z,96011.78
2022-12-31T01:16:39.868Z,96005.34
2022-12-31T01:19:10.314Z,95997.88
2022-12-31T01:21:39.619Z,95996.28
2022-12-31T01:24:09.989Z,96005.97
2022-12-31T01:26:38.248Z,95992.41
2022-12-31T01:29:07.126Z,96015.91
2022-12-31T01:31:35.794Z,96007.81
2022-12-31T01:34:03.611Z,96000.72
2022-12-31T01:36:33.456Z,95997.66
2022-12-31T01:39:03.788Z,96001.13
2022-12-31T01:41:35.011Z,96013.28
2022-12-31T01:44:24.035Z,96008.19
2022-12-31T01:46:55.997Z,96006.16
2022-12-31T01:49:27.148Z,96001.91
2022-12-31T01:52:00.793Z,96000.09
2022-12-31T01:54:31.993Z,96004.75
2022-12-31T01:57:01.610Z,96004.75
2022-12-31T01:59:31.768Z,96016.28
2022-12-31T02:02:00.581Z,96018.13
2022-12-31T02:04:29.467Z,96027.81
2022-12-31T02:07:00.797Z,96026.63
2022-12-31T02:09:28.538Z,96029.63
2022-12-31T02:11:55.653Z,96028.22
2022-12-31T02:14:28.913Z,96026.41
2022-12-31T02:17:07.885Z,96018.72
2022-12-31T02:20:06.474Z,96018.50
2022-12-31T02:23:04.099Z,96012.44
2022-12-31T02:25:57.313Z,96007.59
2022-12-31T02:28:46.879Z,96013.47
2022-12-31T02:31:24.294Z,96022.34
2022-12-31T02:33:57.599Z,96027.00
2022-12-31T02:36:32.456Z,96027.63
2022-12-31T02:39:01.053Z,96024.75
2022-12-31T02:41:28.192Z,96020.75
2022-12-31T02:43:55.277Z,96037.91
2022-12-31T02:46:33.139Z,96020.13
2022-12-31T02:49:10.952Z,96018.09
2022-12-31T02:51:50.232Z,96017.69
2022-12-31T02:54:28.693Z,96012.03
2022-12-31T02:57:10.458Z,96019.53
2022-12-31T02:59:43.853Z,96009.41
2022-12-31T03:02:18.896Z,96021.16
2022-12-31T03:04:51.594Z,96019.31
2022-12-31T03:07:22.480Z,96013.22
2022-12-31T03:09:50.237Z,96013.19
2022-12-31T03:12:20.343Z,96020.88
2022-12-31T03:14:47.741Z,96016.22
2022-12-31T03:17:16.406Z,96032.84
2022-12-31T03:19:43.602Z,96015.44
2022-12-31T03:22:13.264Z,96016.88
2022-12-31T03:24:40.390Z,96010.78
2022-12-31T03:27:07.479Z,96013.75
2022-12-31T03:29:34.630Z,96013.13
2022-12-31T03:32:01.862Z,96009.72
2022-12-31T03:34:30.463Z,96009.91
2022-12-31T03:36:57.573Z,96009.38
2022-12-31T03:39:24.699Z,96009.09
2022-12-31T03:41:51.876Z,95999.28
2022-12-31T03:44:19.014Z,96010.22
2022-12-31T03:46:46.152Z,95997.63
2022-12-31T03:49:13.360Z,96004.22
2022-12-31T03:51:42.027Z,96001.44
2022-12-31T03:54:09.193Z,96003.44
2022-12-31T03:56:36.383Z,96001.00
2022-12-31T03:59:03.562Z,96001.72
2022-12-31T04:01:30.879Z,96012.47
2022-12-31T04:03:58.339Z,96012.81
2022-12-31T04:06:25.706Z,96013.84
2022-12-31T04:08:54.287Z,96013.41
2022-12-31T04:11:21.537Z,96015.03
2022-12-31T04:13:48.706Z,96021.94
2022-12-31T04:16:15.912Z,96010.50
2022-12-31T04:18:42.974Z,96008.28
2022-12-31T04:21:10.164Z,96007.66
2022-12-31T04:23:37.312Z,95999.00
2022-12-31T04:26:05.956Z,95993.31
2022-12-31T04:28:33.116Z,96000.22
2022-12-31T04:31:00.194Z,96002.88
2022-12-31T04:33:27.294Z,96008.38
2022-12-31T04:36:00.120Z,96015.50
2022-12-31T04:38:28.949Z,96012.81
2022-12-31T04:40:56.881Z,96014.44
2022-12-31T04:43:25.535Z,96007.88
2022-12-31T04:45:52.673Z,96005.63
2022-12-31T04:48:20.095Z,96005.63
2022-12-31T04:50:47.538Z,96013.97
2022-12-31T04:53:14.717Z,96022.28
2022-12-31T04:55:42.246Z,96017.25
2022-12-31T04:58:09.441Z,96016.09
2022-12-31T05:00:38.095Z,96006.78
2022-12-31T05:03:05.267Z,96003.47
2022-12-31T05:05:32.465Z,96015.56
2022-12-31T05:07:59.615Z,96007.19
2022-12-31T05:10:26.768Z,96014.31
2022-12-31T05:12:53.912Z,96016.94
2022-12-31T05:15:21.033Z,96007.56
2022-12-31T05:17:49.859Z,96013.91
2022-12-31T05:20:17.115Z,96009.22
2022-12-31T05:22:44.254Z,96012.28
2022-12-31T05:25:11.309Z,96012.28
2022-12-31T05:27:38.532Z,96019.97
2022-12-31T05:30:07.018Z,96030.91
2022-12-31T05:32:35.039Z,96016.63
2022-12-31T05:35:04.431Z,96013.72
2022-12-31T05:37:32.230Z,96004.69
2022-12-31T05:40:00.101Z,96000.75
2022-12-31T05:42:27.324Z,96012.22
2022-12-31T05:44:54.575Z,96006.94
2022-12-31T05:47:21.951Z,96018.03
2022-12-31T05:49:49.072Z,96017.25
2022-12-31T05:52:17.970Z,96017.88
2022-12-31T05:54:45.105Z,96018.31
2022-12-31T05:57:12.208Z,96031.97
2022-12-31T05:59:39.328Z,96023.47
2022-12-31T06:02:06.480Z,96028.38
2022-12-31T06:04:33.480Z,96027.28
2022-12-31T06:07:00.543Z,96021.56
2022-12-31T06:09:29.044Z,96031.91
2022-12-31T06:11:56.211Z,96041.00
2022-12-31T06:14:23.573Z,96032.47
2022-12-31T06:16:50.675Z,96041.00
2022-12-31T06:19:17.889Z,96037.88
2022-12-31T06:21:44.943Z,96032.63
2022-12-31T06:24:12.025Z,96040.28
2022-12-31T06:26:40.540Z,96034.81
2022-12-31T06:29:07.724Z,96033.66
2022-12-31T06:31:35.017Z,96036.91
2022-12-31T06:34:02.401Z,96034.06
2022-12-31T06:36:29.865Z,96023.94
2022-12-31T06:38:56.990Z,96030.41
2022-12-31T06:41:24.101Z,96039.66
2022-12-31T06:43:52.644Z,96047.78
2022-12-31T06:46:19.824Z,96042.78
2022-12-31T06:48:46.879Z,96045.88
2022-12-31T06:51:17.475Z,96039.41
2022-12-31T06:53:46.312Z,96045.06
2022-12-31T06:56:16.245Z,96047.91
2022-12-31T06:58:44.379Z,96048.50
2022-12-31T07:01:36.514Z,96051.28
2022-12-31T07:04:19.685Z,96053.63
2022-12-31T07:06:55.746Z,96056.44
2022-12-31T07:09:36.534Z,96052.25
2022-12-31T07:12:14.401Z,96053.19
2022-12-31T07:14:49.546Z,96057.16
2022-12-31T07:17:32.288Z,96050.09
2022-12-31T07:20:05.400Z,96048.59
2022-12-31T07:22:33.545Z,96052.81
2022-12-31T07:25:01.670Z,96051.75
2022-12-31T07:27:56.194Z,96060.63
2022-12-31T07:30:31.732Z,96054.34
2022-12-31T07:33:29.653Z,96052.34
2022-12-31T07:36:12.131Z,96056.16
2022-12-31T07:38:50.243Z,96068.06
2022-12-31T07:41:34.600Z,96067.34
2022-12-31T07:44:07.871Z,96066.28
2022-12-31T07:46:47.859Z,96071.88
2022-12-31T07:49:17.382Z,96070.66
2022-12-31T07:51:44.911Z,96069.06
2022-12-31T07:54:14.150Z,96077.94
2022-12-31T07:56:43.196Z,96075.72
2022-12-31T07:59:29.558Z,96071.72
2022-12-31T08:02:05.527Z,96074.25
2022-12-31T08:04:48.230Z,96072.03
2022-12-31T08:07:26.896Z,96060.94
2022-12-31T08:10:03.884Z,96062.25
2022-12-31T08:12:36.044Z,96059.50
2022-12-31T08:15:11.742Z,96053.59
2022-12-31T08:17:39.334Z,96062.81
2022-12-31T08:20:13.526Z,96056.81
2022-12-31T08:23:05.256Z,96061.44
2022-12-31T08:25:47.617Z,96058.47
2022-12-31T08:28:26.116Z,96061.78
2022-12-31T08:31:01.397Z,96061.63
2022-12-31T08:33:39.103Z,96060.53
2022-12-31T08:36:18.119Z,96066.00
2022-12-31T08:38:55.125Z,96075.06
2022-12-31T08:41:29.829Z,96084.09
2022-12-31T08:44:10.517Z,96079.84
2022-12-31T08:46:48.698Z,96080.38
2022-12-31T08:49:16.467Z,96085.00
2022-12-31T08:51:45.606Z,96079.81
2022-12-31T08:54:14.135Z,96087.06
2022-12-31T08:56:50.778Z,96081.44
2022-12-31T08:59:36.002Z,96084.78
2022-12-31T09:02:29.384Z,96078.09
2022-12-31T09:05:08.891Z,96076.97
2022-12-31T09:07:41.408Z,96082.56
2022-12-31T09:10:19.365Z,96085.97
2022-12-31T09:12:59.296Z,96077.56
2022-12-31T09:15:33.900Z,96078.09
2022-12-31T09:18:01.998Z,96068.13
2022-12-31T09:20:42.757Z,96075.19
2022-12-31T09:23:13.166Z,96080.34
2022-12-31T09:25:54.477Z,96079.22
2022-12-31T09:28:39.708Z,96078.06
2022-12-31T09:31:17.522Z,96078.66
2022-12-31T09:33:55.575Z,96074.53
2022-12-31T09:36:32.320Z,96079.88
2022-12-31T09:39:13.184Z,96072.38
2022-12-31T09:42:10.319Z,96072.47
2022-12-31T09:45:19.815Z,96070.91
2022-12-31T09:48:28.067Z,96065.31
2022-12-31T09:51:12.715Z,96061.88
2022-12-31T09:53:54.081Z,96060.94
2022-12-31T09:56:29.356Z,96063.59
2022-12-31T09:59:05.708Z,96057.66
2022-12-31T10:01:49.565Z,96049.09
2022-12-31T10:04:49.166Z,96038.75
2022-12-31T10:07:36.813Z,96042.41
2022-12-31T10:10:13.478Z,96038.38
2022-12-31T10:13:13.198Z,96038.63
2022-12-31T10:16:05.617Z,96039.53
2022-12-31T10:18:54.661Z,96035.63
2022-12-31T10:21:46.469Z,96027.78
2022-12-31T10:24:48.031Z,96013.53
2022-12-31T10:27:28.696Z,96017.50
2022-12-31T10:30:12.033Z,96021.66
2022-12-31T10:32:44.150Z,96015.31
2022-12-31T10:35:29.302Z,96016.38
2022-12-31T10:38:14.550Z,96017.75
2022-12-31T10:41:24.038Z,96011.66
2022-12-31T10:44:38.474Z,96016.94
2022-12-31T10:47:40.032Z,96010.41
2022-12-31T10:50:44.470Z,96000.97
2022-12-31T10:53:44.159Z,95994.50
2022-12-31T10:56:50.870Z,95999.13
2022-12-31T11:00:01.872Z,95997.63
2022-12-31T11:03:06.891Z,95998.41
2022-12-31T11:06:18.254Z,95996.16
2022-12-31T11:09:27.478Z,95996.38
2022-12-31T11:12:10.680Z,95991.00
2022-12-31T11:15:03.641Z,95989.78
2022-12-31T11:17:53.883Z,95975.06
2022-12-31T11:20:42.912Z,95973.22
2022-12-31T11:23:30.634Z,95976.84
2022-12-31T11:26:12.065Z,95976.59
2022-12-31T11:29:05.043Z,95970.31
2022-12-31T11:31:50.509Z,95962.66
2022-12-31T11:34:49.780Z,95963.28
2022-12-31T11:37:35.284Z,95954.16
2022-12-31T11:40:30.372Z,95945.13
2022-12-31T11:43:01.983Z,95934.84
2022-12-31T11:45:57.414Z,95923.50
2022-12-31T11:48:36.391Z,95922.72
2022-12-31T11:51:33.130Z,95921.56
2022-12-31T11:54:35.324Z,95925.13
2022-12-31T11:57:17.445Z,95922.72
2022-12-31T11:59:45.091Z,95917.59
2022-12-31T12:02:25.976Z,95902.06
2022-12-31T12:04:55.514Z,95904.88
2022-12-31T12:07:25.046Z,95901.53
2022-12-31T12:09:56.088Z,95895.31
2022-12-31T12:12:23.929Z,95899.34
2022-12-31T12:14:53.388Z,95892.66
2022-12-31T12:17:28.681Z,95894.94
2022-12-31T12:19:57.055Z,95891.75
2022-12-31T12:22:28.048Z,95885.03
2022-12-31T12:24:58.189Z,95874.25
2022-12-31T12:27:29.665Z,95887.34
2022-12-31T12:29:56.906Z,95879.88
2022-12-31T12:32:26.869Z,95886.00
2022-12-31T12:34:54.570Z,95890.94
2022-12-31T12:37:33.026Z,95883.19
2022-12-31T12:40:03.248Z,95885.50
2022-12-31T12:42:31.788Z,95882.72
2022-12-31T12:45:04.770Z,95886.28
2022-12-31T12:47:33.408Z,95880.53
2022-12-31T12:50:01.206Z,95880.78
2022-12-31T12:52:59.551Z,95883.44
2022-12-31T12:55:38.822Z,95881.25
2022-12-31T12:58:21.511Z,95882.97
2022-12-31T13:01:03.111Z,95892.78
2022-12-31T13:04:33.557Z,95884.09
2022-12-31T13:07:16.576Z,95880.66
2022-12-31T13:10:05.474Z,95883.34
2022-12-31T13:13:13.726Z,95886.59
2022-12-31T13:15:41.866Z,95878.59
2022-12-31T13:18:26.877Z,95879.41
2022-12-31T13:21:03.610Z,95881.13
2022-12-31T13:23:41.715Z,95892.28
2022-12-31T13:26:21.050Z,95884.13
2022-12-31T13:28:52.488Z,95882.97
2022-12-31T13:31:26.368Z,95896.34
2022-12-31T13:34:01.225Z,95888.06
2022-12-31T13:36:33.556Z,95887.50
2022-12-31T13:39:05.957Z,95897.72
2022-12-31T13:41:43.606Z,95888.03
2022-12-31T13:44:18.532Z,95887.69
2022-12-31T13:46:52.110Z,95893.88
2022-12-31T13:49:27.066Z,95890.81
2022-12-31T13:52:02.790Z,95895.75
2022-12-31T13:54:38.414Z,95894.25
2022-12-31T13:57:19.390Z,95897.59
2022-12-31T13:59:55.168Z,95901.13
2022-12-31T14:02:36.095Z,95912.75
2022-12-31T14:05:15.485Z,95919.66
2022-12-31T14:07:50.629Z,95909.75
2022-12-31T14:10:28.358Z,95912.16
2022-12-31T14:13:11.348Z,95905.91
2022-12-31T14:15:52.729Z,95903.19
2022-12-31T14:18:30.767Z,95908.47
2022-12-31T14:21:08.451Z,95907.22
2022-12-31T14:23:47.228Z,95911.59
2022-12-31T14:26:23.947Z,95913.78
2022-12-31T14:29:03.767Z,95903.06
2022-12-31T14:32:01.084Z,95910.19
2022-12-31T14:34:42.067Z,95918.81
2022-12-31T14:37:18.593Z,95916.28
2022-12-31T14:39:58.558Z,95927.06
2022-12-31T14:42:37.770Z,95921.16
2022-12-31T14:45:26.690Z,95924.38
2022-12-31T14:48:01.031Z,95935.53
2022-12-31T14:50:31.324Z,95928.41
2022-12-31T14:53:08.974Z,95923.91
2022-12-31T14:55:38.001Z,95925.97
2022-12-31T14:58:29.340Z,95931.06
2022-12-31T15:01:01.125Z,95936.91
2022-12-31T15:03:41.284Z,95933.16
2022-12-31T15:06:41.817Z,95935.72
2022-12-31T15:09:32.458Z,95938.50
2022-12-31T15:12:17.421Z,95944.22
2022-12-31T15:15:06.899Z,95945.28
2022-12-31T15:17:50.565Z,95948.00
2022-12-31T15:20:52.782Z,95953.16
2022-12-31T15:23:24.223Z,95945.81
2022-12-31T15:25:59.792Z,95943.06
2022-12-31T15:28:33.938Z,95939.88
2022-12-31T15:31:11.717Z,95939.19
2022-12-31T15:33:56.820Z,95943.91
2022-12-31T15:36:26.677Z,95942.97
2022-12-31T15:39:07.493Z,95945.16
2022-12-31T15:41:43.013Z,95944.41
2022-12-31T15:44:28.925Z,95939.75
2022-12-31T15:47:02.973Z,95950.66
2022-12-31T15:49:40.940Z,95953.38
2022-12-31T15:52:16.613Z,95953.19
2022-12-31T15:54:48.234Z,95959.03
2022-12-31T15:57:19.714Z,95961.69
2022-12-31T15:59:47.690Z,95964.59
2022-12-31T16:02:23.974Z,95955.50
2022-12-31T16:04:54.753Z,95955.03
2022-12-31T16:07:23.910Z,95959.81
2022-12-31T16:09:56.217Z,95960.47
2022-12-31T16:12:30.941Z,95967.38
2022-12-31T16:15:01.825Z,95965.00
2022-12-31T16:17:31.137Z,95971.28
2022-12-31T16:20:02.643Z,95965.16
2022-12-31T16:22:37.389Z,95972.94
2022-12-31T16:27:55.319Z,95993.50
2022-12-31T16:30:26.066Z,95990.88
2022-12-31T16:33:00.853Z,95989.47
2022-12-31T16:35:31.854Z,96001.75
2022-12-31T16:38:19.980Z,95989.78
2022-12-31T16:41:08.656Z,95990.25
2022-12-31T16:43:39.159Z,95990.25
2022-12-31T16:46:16.282Z,95995.97
2022-12-31T16:48:48.400Z,95998.63
2022-12-31T16:51:24.557Z,96000.09
2022-12-31T16:53:52.384Z,95987.56
2022-12-31T16:56:24.602Z,95994.44
2022-12-31T16:59:00.170Z,96003.84
2022-12-31T17:01:32.742Z,95998.56
2022-12-31T17:04:04.695Z,95997.41
2022-12-31T17:06:33.435Z,96004.94
2022-12-31T17:09:19.500Z,96002.16
2022-12-31T17:11:54.613Z,96005.47
2022-12-31T17:14:24.082Z,96003.25
2022-12-31T17:17:02.592Z,96004.72
2022-12-31T17:19:43.594Z,96005.09
2022-12-31T17:22:29.797Z,96007.88
2022-12-31T17:25:03.782Z,96009.34
2022-12-31T17:27:32.342Z,96007.22
2022-12-31T17:30:19.672Z,96016.69
2022-12-31T17:32:47.082Z,96012.88
2022-12-31T17:35:29.263Z,96016.56
2022-12-31T17:38:26.493Z,96019.38
2022-12-31T17:41:00.372Z,96029.91
2022-12-31T17:43:34.784Z,96023.78
2022-12-31T17:46:09.014Z,96015.28
2022-12-31T17:48:37.384Z,96021.31
2022-12-31T17:51:05.358Z,96018.69
2022-12-31T17:53:33.994Z,96016.47
2022-12-31T17:56:03.976Z,96008.53
2022-12-31T17:58:35.612Z,96013.22
2022-12-31T18:01:06.193Z,96006.72
2022-12-31T18:03:33.573Z,96010.41
2022-12-31T18:06:01.592Z,96005.31
2022-12-31T18:08:29.157Z,96001.00
2022-12-31T18:10:57.919Z,96002.81
2022-12-31T18:13:26.946Z,96008.56
2022-12-31T18:15:54.966Z,96008.53
2022-12-31T18:18:25.966Z,96006.09
2022-12-31T18:20:57.772Z,96007.97
2022-12-31T18:23:29.540Z,96002.75
2022-12-31T18:25:58.324Z,96002.97
2022-12-31T18:28:25.455Z,96006.03
2022-12-31T18:30:53.235Z,96007.06
2022-12-31T18:33:23.096Z,96008.81
2022-12-31T18:36:08.893Z,96010.03
2022-12-31T18:38:37.037Z,96008.63
2022-12-31T18:41:06.443Z,96005.81
2022-12-31T18:43:33.575Z,96008.69
2022-12-31T18:46:00.673Z,96016.31
2022-12-31T18:48:27.907Z,96012.78
2022-12-31T18:50:56.538Z,96016.81
2022-12-31T18:53:25.672Z,96010.31
2022-12-31T18:55:54.867Z,96019.22
2022-12-31T18:58:24.068Z,96016.81
2022-12-31T19:00:52.401Z,96022.16
2022-12-31T19:03:22.439Z,96016.28
2022-12-31T19:05:51.141Z,96025.81
2022-12-31T19:08:20.914Z,96026.38
2022-12-31T19:10:51.871Z,96028.47
2022-12-31T19:13:20.311Z,96028.53
2022-12-31T19:15:51.283Z,96033.44
2022-12-31T19:18:19.043Z,96022.94
2022-12-31T19:20:47.024Z,96026.44
2022-12-31T19:23:16.216Z,96030.88
2022-12-31T19:25:48.234Z,96028.78
2022-12-31T19:28:18.345Z,96024.91
2022-12-31T19:30:45.890Z,96026.13
2022-12-31T19:33:15.028Z,96024.44
2022-12-31T19:35:42.793Z,96033.03
2022-12-31T19:38:18.318Z,96028.03
2022-12-31T19:40:46.876Z,96024.19
2022-12-31T19:43:16.233Z,96026.69
2022-12-31T19:45:44.644Z,96032.84
2022-12-31T19:48:16.107Z,96035.84
2022-12-31T19:50:46.092Z,96038.31
2022-12-31T19:53:15.950Z,96035.47
2022-12-31T19:55:43.413Z,96024.47
2022-12-31T19:58:18.550Z,96040.13
2022-12-31T20:00:51.702Z,96038.13
2022-12-31T20:03:24.699Z,96041.53
2022-12-31T20:06:00.129Z,96043.38
2022-12-31T20:08:27.261Z,96049.50
2022-12-31T20:10:54.428Z,96057.63
2022-12-31T20:13:21.524Z,96042.81
2022-12-31T20:15:49.045Z,96062.09
2022-12-31T20:18:16.230Z,96058.69
2022-12-31T20:20:55.059Z,96068.66
2022-12-31T20:23:22.843Z,96067.03
2022-12-31T20:25:57.422Z,96073.72
2022-12-31T20:28:25.264Z,96082.44
2022-12-31T20:30:52.630Z,96087.13
2022-12-31T20:33:19.988Z,96081.25
2022-12-31T20:35:48.786Z,96083.50
2022-12-31T20:38:15.868Z,96089.22
2022-12-31T20:40:46.631Z,96084.97
2022-12-31T20:43:14.786Z,96099.97
2022-12-31T20:45:42.036Z,96089.63
2022-12-31T20:48:09.236Z,96092.31
2022-12-31T20:50:36.665Z,96093.94
2022-12-31T20:53:05.273Z,96099.44
2022-12-31T20:55:32.486Z,96092.97
2022-12-31T20:57:59.697Z,96088.31
2022-12-31T21:00:26.859Z,96092.78
2022-12-31T21:03:03.881Z,96091.47
2022-12-31T21:05:35.772Z,96099.19
2022-12-31T21:08:04.902Z,96089.41
2022-12-31T21:10:32.154Z,96093.88
2022-12-31T21:12:59.351Z,96110.72
2022-12-31T21:15:26.693Z,96098.13
2022-12-31T21:17:53.908Z,96099.13
2022-12-31T21:20:21.113Z,96095.47
2022-12-31T21:22:48.223Z,96106.22
2022-12-31T21:25:16.818Z,96095.84
2022-12-31T21:27:44.205Z,96098.72
2022-12-31T21:30:20.396Z,96102.50
2022-12-31T21:32:47.927Z,96104.75
2022-12-31T21:35:42.398Z,96105.59
2022-12-31T21:38:02.777Z,96100.09
2022-12-31T21:40:32.067Z,96105.81
2022-12-31T21:42:59.239Z,96102.94
2022-12-31T21:45:26.572Z,96112.31
2022-12-31T21:47:53.825Z,96111.19
2022-12-31T21:50:21.117Z,96122.50
2022-12-31T21:52:48.312Z,96117.28
2022-12-31T21:55:15.736Z,96121.56
2022-12-31T21:58:15.499Z,96125.00
2022-12-31T22:00:42.329Z,96134.31
2022-12-31T22:03:12.624Z,96127.41
2022-12-31T22:05:46.859Z,96139.38
2022-12-31T22:08:15.379Z,96141.00
2022-12-31T22:10:50.322Z,96140.53
2022-12-31T22:13:21.816Z,96147.94
2022-12-31T22:15:55.398Z,96139.63
2022-12-31T22:18:27.834Z,96139.25
2022-12-31T22:21:02.756Z,96149.78
2022-12-31T22:23:30.351Z,96146.19
2022-12-31T22:25:57.831Z,96152.66
2022-12-31T22:28:41.625Z,96143.75
2022-12-31T22:31:13.875Z,96149.66
2022-12-31T22:33:41.300Z,96149.41
2022-12-31T22:36:12.516Z,96148.81
2022-12-31T22:38:39.869Z,96151.44
2022-12-31T22:41:09.216Z,96152.88
2022-12-31T22:43:40.083Z,96154.69
2022-12-31T22:46:09.847Z,96151.44
2022-12-31T22:48:37.609Z,96161.16
2022-12-31T22:51:05.454Z,96162.19
2022-12-31T22:53:32.695Z,96168.91
2022-12-31T22:55:59.837Z,96174.16
2022-12-31T22:58:27.111Z,96175.75
2022-12-31T23:00:55.674Z,96168.84
2022-12-31T23:03:22.836Z,96168.84
2022-12-31T23:05:51.834Z,96163.19
2022-12-31T23:08:23.242Z,96165.00
2022-12-31T23:10:52.957Z,96172.06
2022-12-31T23:13:20.176Z,96176.53
2022-12-31T23:15:47.375Z,96170.81
2022-12-31T23:18:16.073Z,96170.66
2022-12-31T23:20:43.251Z,96171.25
2022-12-31T23:23:15.050Z,96164.34
2022-12-31T23:25:44.098Z,96164.94
2022-12-31T23:28:13.088Z,96156.75
2022-12-31T23:30:41.751Z,96166.06
2022-12-31T23:33:17.164Z,96161.75
2022-12-31T23:35:44.878Z,96164.38
2022-12-31T23:38:13.344Z,96170.88
2022-12-31T23:40:40.486Z,96167.59
2022-12-31T23:43:08.990Z,96179.34
2022-12-31T23:45:36.740Z,96179.75
2022-12-31T23:48:04.449Z,96175.06
2022-12-31T23:50:33.036Z,96169.19
2022-12-31T23:53:00.207Z,96165.78
2022-12-31T23:55:27.408Z,96166.94
2022-12-31T23:57:55.403Z,96181.34
